Weather at Prescott International Airport - Ernest A. Love Field

Public forecast

Using degrees Fahrenheit for public forecast. Weather courtesy of forecast.io.

Current aviation weather report (METAR) for Prescott International Airport - Ernest A. Love Field

2024/06/16 19:53 (retrieved 48 minutes ago)

KPRC 161953Z 19017G24KT 10SM CLR 32/M07 A2993 RMK AO2 PK WND 18029/1935 SLP040 T03171067

Aviation forecast (TAF) for Prescott International Airport - Ernest A. Love Field

2024/06/16 18:22 (retrieved 2 hours ago)

TAF KPRC 161720Z 1618/1718 22020G30KT P6SM SKC FM170300 19009KT P6SM SKC FM171600 20012G22KT P6SM SKC